createdAt,value
2023-06-19T00:03:11.682Z,19.90
2023-06-19T00:08:18.710Z,20.10
2023-06-19T00:13:25.755Z,20.90
2023-06-19T00:18:41.725Z,21.70
2023-06-19T00:23:49.055Z,21.60
2023-06-19T00:28:57.447Z,20.60
2023-06-19T00:34:04.465Z,23.90
2023-06-19T00:39:12.062Z,20.00
2023-06-19T00:44:20.562Z,20.20
2023-06-19T00:49:27.855Z,19.20
2023-06-19T00:54:35.252Z,20.30
2023-06-19T00:59:42.409Z,24.40
2023-06-19T01:04:49.481Z,20.20
2023-06-19T01:10:01.323Z,22.90
2023-06-19T01:15:10.445Z,21.60
2023-06-19T01:20:18.904Z,20.80
2023-06-19T01:25:26.470Z,22.10
2023-06-19T01:30:34.103Z,20.70
2023-06-19T01:35:44.263Z,20.10
2023-06-19T01:40:52.630Z,23.10
2023-06-19T01:45:59.965Z,20.50
2023-06-19T01:51:08.474Z,23.80
2023-06-19T01:56:15.449Z,21.10
2023-06-19T02:01:22.446Z,21.50
2023-06-19T02:06:31.817Z,20.70
2023-06-19T02:11:38.826Z,20.40
2023-06-19T02:16:48.386Z,22.30
2023-06-19T02:21:55.565Z,23.30
2023-06-19T02:27:03.666Z,25.70
2023-06-19T02:32:11.963Z,21.70
2023-06-19T02:37:19.057Z,26.30
2023-06-19T02:42:25.975Z,22.50
2023-06-19T02:47:33.048Z,23.60
2023-06-19T02:52:40.080Z,23.70
2023-06-19T02:57:47.297Z,22.70
2023-06-19T03:02:54.841Z,26.00
2023-06-19T03:08:02.057Z,25.60
2023-06-19T03:13:09.120Z,23.90
2023-06-19T03:18:16.425Z,25.70
2023-06-19T03:23:23.468Z,28.10
2023-06-19T03:28:31.535Z,26.20
2023-06-19T03:33:39.204Z,25.40
2023-06-19T03:38:47.440Z,27.00
2023-06-19T03:43:55.038Z,28.70
2023-06-19T03:49:02.047Z,28.00
2023-06-19T03:54:09.108Z,35.50
2023-06-19T03:59:16.650Z,41.10
2023-06-19T04:04:23.931Z,42.90
2023-06-19T04:09:31.055Z,34.80
2023-06-19T04:14:38.057Z,31.00
2023-06-19T04:19:45.237Z,31.30
2023-06-19T04:24:52.237Z,30.40
2023-06-19T04:29:59.380Z,27.40
2023-06-19T04:35:07.383Z,27.00
2023-06-19T04:40:15.009Z,25.50
2023-06-19T04:45:22.240Z,28.80
2023-06-19T04:50:29.154Z,26.70
2023-06-19T04:55:36.173Z,27.90
2023-06-19T05:00:43.576Z,27.60
2023-06-19T05:05:50.665Z,25.90
2023-06-19T05:10:58.925Z,24.40
2023-06-19T05:16:06.165Z,24.50
2023-06-19T05:21:13.963Z,21.10
2023-06-19T05:26:21.745Z,23.00
2023-06-19T05:31:28.908Z,23.70
2023-06-19T05:36:35.836Z,25.10
2023-06-19T05:41:43.409Z,23.80
2023-06-19T05:46:50.744Z,21.30
2023-06-19T05:52:00.440Z,20.50
2023-06-19T05:57:09.586Z,21.00
2023-06-19T06:02:16.520Z,19.80
2023-06-19T06:07:23.634Z,18.90
2023-06-19T06:12:30.524Z,16.30
2023-06-19T06:17:37.521Z,15.40
2023-06-19T06:22:45.132Z,16.90
2023-06-19T06:27:52.642Z,14.10
2023-06-19T06:32:59.667Z,17.80
2023-06-19T06:38:06.638Z,15.10
2023-06-19T06:43:13.461Z,17.70
2023-06-19T06:48:20.545Z,13.20
2023-06-19T06:53:29.161Z,12.90
2023-06-19T06:58:36.057Z,16.30
2023-06-19T07:03:43.239Z,13.60
2023-06-19T07:08:50.394Z,15.20
2023-06-19T07:13:57.347Z,18.20
2023-06-19T07:19:04.342Z,10.70
2023-06-19T07:24:11.854Z,11.70
2023-06-19T07:29:18.974Z,11.30
2023-06-19T07:34:26.426Z,11.10
2023-06-19T07:39:33.441Z,10.20
2023-06-19T07:44:40.420Z,12.10
2023-06-19T07:49:47.748Z,10.50
2023-06-19T07:54:59.018Z,13.30
2023-06-19T08:00:12.506Z,11.20
2023-06-19T08:05:20.221Z,11.90
2023-06-19T08:10:27.719Z,9.00
2023-06-19T08:15:35.476Z,9.80
2023-06-19T08:20:42.529Z,8.60
2023-06-19T08:25:49.547Z,10.20
2023-06-19T08:30:56.447Z,13.00
2023-06-19T08:36:03.876Z,9.70
2023-06-19T08:41:10.958Z,9.10
2023-06-19T08:46:20.586Z,9.30
2023-06-19T08:51:32.611Z,11.20
2023-06-19T08:56:43.170Z,10.00
2023-06-19T09:01:53.794Z,12.50
2023-06-19T09:07:11.682Z,9.20
2023-06-19T09:12:25.340Z,9.00
2023-06-19T09:17:38.747Z,7.50
2023-06-19T09:22:58.159Z,6.30
2023-06-19T09:28:05.365Z,6.30
2023-06-19T09:33:12.471Z,10.10
2023-06-19T09:38:22.593Z,6.50
2023-06-19T09:43:35.742Z,5.10
2023-06-19T09:48:47.582Z,6.70
2023-06-19T09:53:54.682Z,7.50
2023-06-19T09:59:04.046Z,6.70
2023-06-19T10:04:12.508Z,7.10
2023-06-19T10:09:20.408Z,6.50
2023-06-19T10:14:27.598Z,6.10
2023-06-19T10:19:37.703Z,7.30
2023-06-19T10:24:52.993Z,6.00
2023-06-19T10:30:06.392Z,6.10
2023-06-19T10:35:25.229Z,7.50
2023-06-19T10:40:32.354Z,5.50
2023-06-19T10:45:39.337Z,5.60
2023-06-19T10:50:46.780Z,7.30
2023-06-19T10:55:58.488Z,6.70
2023-06-19T11:01:05.897Z,6.40
2023-06-19T11:06:13.267Z,9.10
2023-06-19T11:11:21.536Z,7.20
2023-06-19T11:16:29.752Z,5.10
2023-06-19T11:26:51.940Z,8.40
2023-06-19T11:32:11.918Z,6.50
2023-06-19T11:37:22.172Z,6.30
2023-06-19T11:42:31.174Z,7.50
2023-06-19T11:47:38.801Z,8.30
2023-06-19T11:52:47.006Z,6.10
2023-06-19T12:03:00.078Z,5.50
2023-06-19T12:08:08.074Z,5.10
2023-06-19T12:13:15.095Z,8.60
2023-06-19T12:18:22.302Z,6.30
2023-06-19T12:23:29.730Z,5.60
2023-06-19T12:28:36.927Z,4.70
2023-06-19T12:33:44.948Z,7.30
2023-06-19T12:38:51.967Z,5.80
2023-06-19T12:43:59.268Z,6.60
2023-06-19T12:49:06.268Z,5.70
2023-06-19T12:54:13.132Z,5.10
2023-06-19T12:59:20.633Z,5.30
2023-06-19T13:04:27.634Z,4.60
2023-06-19T13:09:34.694Z,5.70
2023-06-19T13:14:41.624Z,5.90
2023-06-19T13:19:48.528Z,6.00
2023-06-19T13:24:56.776Z,6.90
2023-06-19T13:30:04.769Z,5.80
2023-06-19T13:35:12.155Z,5.40
2023-06-19T13:40:19.138Z,5.00
2023-06-19T13:45:26.330Z,7.20
2023-06-19T13:50:34.134Z,5.40
2023-06-19T13:55:41.088Z,7.10
2023-06-19T14:00:48.737Z,6.20
2023-06-19T14:05:56.434Z,6.30
2023-06-19T14:11:03.481Z,4.60
2023-06-19T14:16:10.912Z,6.40
2023-06-19T14:21:17.899Z,6.90
2023-06-19T14:26:24.916Z,10.30
2023-06-19T14:31:31.918Z,6.80
2023-06-19T14:36:40.817Z,9.70
2023-06-19T14:41:47.917Z,9.50
2023-06-19T14:46:54.938Z,6.00
2023-06-19T14:52:02.104Z,9.80
2023-06-19T14:57:10.239Z,6.40
2023-06-19T15:02:17.274Z,7.70
2023-06-19T15:07:25.067Z,5.70
2023-06-19T15:12:33.342Z,5.50
2023-06-19T15:17:41.092Z,5.60
2023-06-19T15:22:48.187Z,7.00
2023-06-19T15:27:55.281Z,6.30
2023-06-19T15:38:07.989Z,5.70
2023-06-19T15:43:15.042Z,9.40
2023-06-19T15:48:22.150Z,8.90
2023-06-19T15:53:29.236Z,13.10
2023-06-19T15:58:36.326Z,5.00
2023-06-19T16:03:44.097Z,5.80
2023-06-19T16:08:53.081Z,5.70
2023-06-19T16:14:00.704Z,6.60
2023-06-19T16:19:07.664Z,5.80
2023-06-19T16:24:14.603Z,6.80
2023-06-19T16:29:21.774Z,5.80
2023-06-19T16:34:31.109Z,6.00
2023-06-19T16:39:42.490Z,6.30
2023-06-19T16:44:49.485Z,9.30
2023-06-19T16:49:56.937Z,7.80
2023-06-19T16:55:04.030Z,6.50
2023-06-19T17:00:13.062Z,7.70
2023-06-19T17:05:22.291Z,7.00
2023-06-19T17:10:30.503Z,10.00
2023-06-19T17:20:43.383Z,7.70
2023-06-19T17:25:50.550Z,9.60
2023-06-19T17:30:57.493Z,8.90
2023-06-19T17:36:05.099Z,7.20
2023-06-19T17:41:12.092Z,7.40
2023-06-19T17:46:19.036Z,7.90
2023-06-19T17:51:26.433Z,6.60
2023-06-19T17:56:33.458Z,9.50
2023-06-19T18:01:40.793Z,8.40
2023-06-19T18:06:47.777Z,9.00
2023-06-19T18:11:54.779Z,12.10
2023-06-19T18:17:04.865Z,8.10
2023-06-19T18:22:11.841Z,8.60
2023-06-19T18:27:19.645Z,10.00
2023-06-19T18:32:26.705Z,17.30
2023-06-19T18:37:33.876Z,9.20
2023-06-19T18:42:42.247Z,11.10
2023-06-19T18:47:49.414Z,10.40
2023-06-19T18:52:57.238Z,12.10
2023-06-19T18:58:04.256Z,10.30
2023-06-19T19:03:11.480Z,12.40
2023-06-19T19:08:18.621Z,11.10
2023-06-19T19:13:25.800Z,11.10
2023-06-19T19:18:32.799Z,9.50
2023-06-19T19:23:39.664Z,10.00
2023-06-19T19:28:46.635Z,13.10
2023-06-19T19:33:54.066Z,12.20
2023-06-19T19:39:01.114Z,15.40
2023-06-19T19:44:08.254Z,11.30
2023-06-19T19:49:15.250Z,11.50
2023-06-19T19:54:30.057Z,11.90
2023-06-19T19:59:46.057Z,15.20
2023-06-19T20:04:53.625Z,12.00
2023-06-19T20:10:01.712Z,14.50
2023-06-19T20:15:11.290Z,13.20
2023-06-19T20:20:18.289Z,18.70
2023-06-19T20:25:25.228Z,15.10
2023-06-19T20:30:32.963Z,18.10
2023-06-19T20:35:39.898Z,19.20
2023-06-19T20:40:46.767Z,18.30
2023-06-19T20:45:53.841Z,18.20
2023-06-19T20:51:00.738Z,15.00
2023-06-19T20:56:07.894Z,19.60
2023-06-19T21:01:14.818Z,18.20
2023-06-19T21:06:23.652Z,17.90
2023-06-19T21:11:30.597Z,15.50
2023-06-19T21:16:37.856Z,18.00
2023-06-19T21:21:44.792Z,15.30
2023-06-19T21:26:53.307Z,17.60
2023-06-19T21:32:00.263Z,17.70
2023-06-19T21:37:07.856Z,20.40
2023-06-19T21:42:14.925Z,16.20
2023-06-19T21:47:21.932Z,17.70
2023-06-19T21:52:28.853Z,15.40
2023-06-19T21:57:53.779Z,19.00
2023-06-19T22:08:12.159Z,19.70
2023-06-19T22:13:19.087Z,16.40
2023-06-19T22:18:26.127Z,15.20
2023-06-19T22:23:33.568Z,19.30
2023-06-19T22:28:40.557Z,20.00
2023-06-19T22:33:51.543Z,16.50
2023-06-19T22:38:58.728Z,15.90
2023-06-19T22:44:05.964Z,18.50
2023-06-19T22:49:14.890Z,21.00
2023-06-19T22:54:21.891Z,18.90
2023-06-19T22:59:29.172Z,19.20
2023-06-19T23:04:36.938Z,18.10
2023-06-19T23:09:44.231Z,18.40
2023-06-19T23:14:51.212Z,15.60
2023-06-19T23:19:59.562Z,18.90
2023-06-19T23:25:07.474Z,16.30
2023-06-19T23:30:15.018Z,16.00
2023-06-19T23:35:24.351Z,17.20
2023-06-19T23:40:31.566Z,19.00
2023-06-19T23:45:38.477Z,18.90
2023-06-19T23:50:45.343Z,16.50
2023-06-19T23:55:52.475Z,17.80
